createdAt,value
2019-04-29T00:03:07.553Z,3
2019-04-29T00:08:07.634Z,2
2019-04-29T00:13:07.594Z,3
2019-04-29T00:18:07.590Z,3
2019-04-29T00:23:07.579Z,3
2019-04-29T00:28:07.623Z,2
2019-04-29T00:33:07.628Z,3
2019-04-29T00:38:07.643Z,3
2019-04-29T00:43:07.552Z,3
2019-04-29T00:48:07.578Z,3
2019-04-29T00:53:07.556Z,2
2019-04-29T00:58:07.588Z,2
2019-04-29T01:03:07.614Z,2
2019-04-29T01:08:07.603Z,2
2019-04-29T01:13:07.647Z,3
2019-04-29T01:18:07.577Z,2
2019-04-29T01:23:07.640Z,2
2019-04-29T01:28:07.577Z,3
2019-04-29T01:33:07.600Z,2
2019-04-29T01:38:07.672Z,3
2019-04-29T01:43:07.636Z,2
2019-04-29T01:48:07.642Z,2
2019-04-29T01:53:07.627Z,3
2019-04-29T01:58:07.611Z,3
2019-04-29T02:03:07.632Z,3
2019-04-29T02:08:07.654Z,3
2019-04-29T02:13:07.645Z,2
2019-04-29T02:18:07.598Z,3
2019-04-29T02:23:07.578Z,2
2019-04-29T02:28:07.652Z,2
2019-04-29T02:33:07.628Z,2
2019-04-29T02:38:07.675Z,3
2019-04-29T02:43:07.573Z,2
2019-04-29T02:48:07.661Z,3
2019-04-29T02:53:07.662Z,2
2019-04-29T02:58:07.657Z,3
2019-04-29T03:03:07.614Z,3
2019-04-29T03:08:07.626Z,2
2019-04-29T03:13:07.579Z,2
2019-04-29T03:18:07.678Z,3
2019-04-29T03:23:07.656Z,2
2019-04-29T03:28:07.687Z,3
2019-04-29T03:33:07.663Z,4
2019-04-29T03:38:07.683Z,3
2019-04-29T03:43:07.682Z,3
2019-04-29T03:48:07.615Z,2
2019-04-29T03:53:07.604Z,3
2019-04-29T03:58:07.722Z,5
2019-04-29T04:03:07.656Z,4
2019-04-29T04:08:07.696Z,4
2019-04-29T04:13:07.684Z,4
2019-04-29T04:18:07.836Z,4
2019-04-29T04:23:07.678Z,4
2019-04-29T04:28:07.678Z,7
2019-04-29T04:33:07.620Z,8
2019-04-29T04:38:07.718Z,9
2019-04-29T04:43:07.614Z,9
2019-04-29T04:48:07.658Z,10
2019-04-29T04:53:07.679Z,7
2019-04-29T04:58:07.723Z,7
2019-04-29T05:03:07.698Z,6
2019-04-29T05:08:07.635Z,9
2019-04-29T05:13:07.633Z,9
2019-04-29T05:18:07.633Z,10
2019-04-29T05:23:07.712Z,9
2019-04-29T05:28:07.725Z,9
2019-04-29T05:33:07.693Z,8
2019-04-29T05:38:07.644Z,8
2019-04-29T05:43:07.644Z,7
2019-04-29T05:48:07.700Z,12
2019-04-29T05:53:11.254Z,12
2019-04-29T05:58:07.697Z,14
2019-04-29T06:03:07.743Z,13
2019-04-29T06:08:07.653Z,17
2019-04-29T06:13:07.730Z,12
2019-04-29T06:18:07.652Z,9
2019-04-29T06:23:07.737Z,8
2019-04-29T06:28:07.718Z,8
2019-04-29T06:33:07.707Z,7
2019-04-29T06:38:07.654Z,8
2019-04-29T06:43:07.733Z,8
2019-04-29T06:48:07.748Z,9
2019-04-29T06:53:07.702Z,9
2019-04-29T06:58:07.691Z,10
2019-04-29T07:03:07.695Z,10
2019-04-29T07:08:07.696Z,10
2019-04-29T07:13:07.703Z,10
2019-04-29T07:18:07.703Z,9
2019-04-29T07:23:07.747Z,9
2019-04-29T07:28:07.696Z,7
2019-04-29T07:33:07.710Z,5
2019-04-29T07:38:08.511Z,5
2019-04-29T07:43:09.524Z,4
2019-04-29T07:48:07.812Z,6
2019-04-29T07:53:07.701Z,7
2019-04-29T07:58:07.696Z,4
2019-04-29T08:03:07.701Z,4
2019-04-29T08:08:07.787Z,5
2019-04-29T08:13:07.769Z,4
2019-04-29T08:18:11.234Z,4
2019-04-29T08:23:07.740Z,5
2019-04-29T08:28:07.748Z,4
2019-04-29T08:33:11.881Z,4
2019-04-29T08:38:07.748Z,4
2019-04-29T08:43:07.683Z,4
2019-04-29T08:48:07.755Z,3
2019-04-29T08:53:07.720Z,4
2019-04-29T08:58:11.143Z,4
2019-04-29T09:03:07.769Z,4
2019-04-29T09:08:07.757Z,4
2019-04-29T09:13:07.775Z,3
2019-04-29T09:18:10.754Z,3
2019-04-29T09:23:08.131Z,3
2019-04-29T09:28:07.764Z,4
2019-04-29T09:33:08.633Z,4
2019-04-29T09:38:07.791Z,4
2019-04-29T09:43:15.076Z,3
2019-04-29T09:48:07.765Z,3
2019-04-29T09:53:07.769Z,4
2019-04-29T09:58:07.702Z,4
2019-04-29T10:03:07.709Z,3
2019-04-29T10:08:07.721Z,4
2019-04-29T10:13:07.727Z,3
2019-04-29T10:18:07.771Z,4
2019-04-29T10:23:07.772Z,4
2019-04-29T10:28:07.765Z,4
2019-04-29T10:33:07.773Z,4
2019-04-29T10:38:07.774Z,3
2019-04-29T10:43:11.304Z,4
2019-04-29T10:48:07.819Z,4
2019-04-29T10:53:10.873Z,5
2019-04-29T10:58:07.715Z,4
2019-04-29T11:03:07.713Z,4
2019-04-29T11:08:07.715Z,4
2019-04-29T11:13:07.715Z,3
2019-04-29T11:18:07.725Z,4
2019-04-29T11:23:08.949Z,5
2019-04-29T11:28:07.738Z,4
2019-04-29T11:33:07.744Z,5
2019-04-29T11:38:07.758Z,3
2019-04-29T11:43:10.785Z,3
2019-04-29T11:48:07.744Z,4
2019-04-29T11:53:07.745Z,4
2019-04-29T11:58:07.743Z,5
2019-04-29T12:03:07.748Z,3
2019-04-29T12:08:15.827Z,5
2019-04-29T12:13:07.738Z,5
2019-04-29T12:18:07.742Z,4
2019-04-29T12:23:11.019Z,4
2019-04-29T12:28:18.725Z,3
2019-04-29T12:33:07.737Z,4
2019-04-29T12:38:10.848Z,3
2019-04-29T12:43:11.093Z,4
2019-04-29T12:48:07.737Z,4
2019-04-29T12:53:07.738Z,4
2019-04-29T12:58:07.750Z,4
2019-04-29T13:03:07.744Z,4
2019-04-29T13:08:07.748Z,4
2019-04-29T13:13:07.743Z,4
2019-04-29T13:18:12.534Z,4
2019-04-29T13:23:17.263Z,4
2019-04-29T13:28:07.759Z,5
2019-04-29T13:33:16.192Z,5
2019-04-29T13:38:07.748Z,5
2019-04-29T13:43:07.753Z,5
2019-04-29T13:48:09.156Z,4
2019-04-29T13:53:11.525Z,5
2019-04-29T13:58:07.751Z,4
2019-04-29T14:03:11.474Z,4
2019-04-29T14:08:07.756Z,6
2019-04-29T14:13:13.172Z,6
2019-04-29T14:18:11.549Z,6
2019-04-29T14:23:07.752Z,5
2019-04-29T14:28:07.755Z,6
2019-04-29T14:33:07.770Z,7
2019-04-29T14:38:07.757Z,6
2019-04-29T14:43:18.362Z,6
2019-04-29T14:48:07.758Z,5
2019-04-29T14:53:07.783Z,6
2019-04-29T14:58:07.762Z,6
2019-04-29T15:03:07.757Z,6
2019-04-29T15:08:07.803Z,6
2019-04-29T15:13:20.476Z,5
2019-04-29T15:18:15.751Z,6
2019-04-29T15:23:07.773Z,6
2019-04-29T15:28:07.778Z,6
2019-04-29T15:33:07.858Z,6
2019-04-29T15:38:07.779Z,5
2019-04-29T15:43:07.782Z,6
2019-04-29T15:48:07.832Z,6
2019-04-29T15:53:07.785Z,6
2019-04-29T15:58:08.131Z,5
2019-04-29T16:03:07.861Z,4
2019-04-29T16:08:07.823Z,5
2019-04-29T16:13:07.787Z,5
2019-04-29T16:18:10.514Z,5
2019-04-29T16:23:07.786Z,5
2019-04-29T16:28:07.786Z,5
2019-04-29T16:33:13.863Z,4
2019-04-29T16:38:11.307Z,5
2019-04-29T16:43:07.840Z,5
2019-04-29T16:48:07.798Z,4
2019-04-29T16:53:07.821Z,5
2019-04-29T16:58:17.255Z,4
2019-04-29T17:03:07.825Z,5
2019-04-29T17:08:09.222Z,5
2019-04-29T17:13:08.979Z,4
2019-04-29T17:18:07.807Z,5
2019-04-29T17:23:07.807Z,4
2019-04-29T17:28:11.765Z,4
2019-04-29T17:33:08.025Z,4
2019-04-29T17:38:07.831Z,4
2019-04-29T17:43:07.811Z,4
2019-04-29T17:48:07.817Z,4
2019-04-29T17:53:07.819Z,4
2019-04-29T17:58:07.851Z,4
2019-04-29T18:03:07.825Z,6
2019-04-29T18:08:07.825Z,4
2019-04-29T18:13:07.822Z,4
2019-04-29T18:18:09.911Z,5
2019-04-29T18:28:07.853Z,5
2019-04-29T18:33:07.827Z,5
2019-04-29T18:38:11.891Z,4
2019-04-29T18:43:07.825Z,5
2019-04-29T18:53:07.834Z,4
2019-04-29T18:58:07.851Z,4
2019-04-29T19:03:07.833Z,5
2019-04-29T19:08:13.804Z,6
2019-04-29T19:13:12.514Z,5
2019-04-29T19:18:08.052Z,4
2019-04-29T19:23:10.183Z,5
2019-04-29T19:28:14.140Z,5
2019-04-29T19:33:09.003Z,5
2019-04-29T19:38:12.324Z,5
2019-04-29T19:43:10.187Z,5
2019-04-29T19:48:07.855Z,5
2019-04-29T19:53:07.847Z,5
2019-04-29T19:58:11.675Z,4
2019-04-29T20:03:20.024Z,6
2019-04-29T20:08:08.481Z,4
2019-04-29T20:13:08.082Z,5
2019-04-29T20:18:08.215Z,5
2019-04-29T20:23:07.917Z,5
2019-04-29T20:28:09.515Z,4
2019-04-29T20:33:11.373Z,4
2019-04-29T20:38:08.052Z,5
2019-04-29T20:43:08.419Z,5
2019-04-29T20:48:10.841Z,5
2019-04-29T20:53:07.881Z,5
2019-04-29T20:58:07.949Z,5
2019-04-29T21:03:09.200Z,4
2019-04-29T21:08:14.192Z,5
2019-04-29T21:13:14.816Z,5
2019-04-29T21:18:10.231Z,4
2019-04-29T21:23:07.872Z,4
2019-04-29T21:28:07.868Z,6
2019-04-29T21:33:14.465Z,8
2019-04-29T21:38:07.885Z,9
2019-04-29T21:43:13.396Z,5
2019-04-29T21:48:07.878Z,4
2019-04-29T21:53:07.873Z,5
2019-04-29T21:58:07.889Z,6
2019-04-29T22:03:07.869Z,5
2019-04-29T22:08:07.874Z,5
2019-04-29T22:13:07.875Z,6
2019-04-29T22:18:13.598Z,6
2019-04-29T22:23:12.840Z,6
2019-04-29T22:33:07.868Z,6
2019-04-29T22:38:12.254Z,7
2019-04-29T22:43:10.146Z,6
2019-04-29T22:48:14.764Z,6
2019-04-29T22:53:08.920Z,6
2019-04-29T22:58:09.597Z,7
2019-04-29T23:03:07.920Z,7
2019-04-29T23:08:07.887Z,6
2019-04-29T23:13:07.880Z,6
2019-04-29T23:18:07.905Z,7
2019-04-29T23:23:07.894Z,7
2019-04-29T23:28:07.889Z,7
2019-04-29T23:33:07.887Z,8
2019-04-29T23:38:09.383Z,7
2019-04-29T23:43:07.894Z,7
2019-04-29T23:48:07.898Z,6
2019-04-29T23:53:07.892Z,6
2019-04-29T23:58:07.914Z,7
